Time;durP1;ratioP1;P1;durP2;ratioP2;P2;SDS_P1;SDS_P2;PMS_P1;PMS_P2;Temp;Humidity;BMP_temperature;BMP_pressure;BME280_temperature;BME280_humidity;BME280_pressure;Samples;Min_cycle;Max_cycle;Signal;HPM_P1;HPM_P2
2022/11/07 00:01:37;;;;;;;12.75;7.65;;;;;;;;;;6219502;23;20016;-72
2022/11/07 00:04:04;;;;;;;14.52;7.47;;;;;;;;;;6219498;23;20108;-72
2022/11/07 00:06:30;;;;;;;12.48;7.30;;;;;;;;;;6219581;23;20090;-72
2022/11/07 00:08:57;;;;;;;12.27;6.40;;;;;;;;;;6219612;23;20055;-72
2022/11/07 00:11:23;;;;;;;14.27;6.40;;;;;;;;;;6246724;23;20098;-72
2022/11/07 00:13:49;;;;;;;12.85;6.65;;;;;;;;;;6194535;23;20027;-72
2022/11/07 00:16:15;;;;;;;10.75;6.22;;;;;;;;;;6219722;23;20375;-72
2022/11/07 00:18:41;;;;;;;10.30;6.88;;;;;;;;;;6219238;23;20074;-72
2022/11/07 00:21:08;;;;;;;11.27;7.05;;;;;;;;;;6245359;23;20103;-72
2022/11/07 00:23:38;;;;;;;15.52;7.45;;;;;;;;;;6219439;23;20016;-72
2022/11/07 00:26:06;;;;;;;15.90;7.32;;;;;;;;;;6219669;23;20031;-72
2022/11/07 00:28:36;;;;;;;12.70;6.82;;;;;;;;;;6219458;23;20047;-72
2022/11/07 00:31:02;;;;;;;16.50;8.13;;;;;;;;;;6219436;23;20012;-72
2022/11/07 00:33:28;;;;;;;11.70;7.07;;;;;;;;;;6219316;23;20454;-72
2022/11/07 00:35:54;;;;;;;22.38;6.88;;;;;;;;;;6219473;23;20012;-71
2022/11/07 00:38:20;;;;;;;21.33;7.00;;;;;;;;;;6219394;23;20334;-72
2022/11/07 00:40:57;;;;;;;16.55;7.18;;;;;;;;;;6219419;23;20066;-72
2022/11/07 00:43:23;;;;;;;14.60;7.60;;;;;;;;;;6219285;23;20446;-72
2022/11/07 00:45:49;;;;;;;17.42;7.30;;;;;;;;;;6219320;23;20450;-72
2022/11/07 00:48:16;;;;;;;18.08;6.93;;;;;;;;;;6219252;23;20023;-72
2022/11/07 00:50:42;;;;;;;18.58;6.90;;;;;;;;;;6219451;23;20013;-72
2022/11/07 00:53:08;;;;;;;12.27;6.18;;;;;;;;;;6219188;23;20346;-72
2022/11/07 00:55:34;;;;;;;13.75;5.93;;;;;;;;;;6219331;23;20027;-72
2022/11/07 00:58:01;;;;;;;12.18;5.65;;;;;;;;;;6219006;23;20095;-72
2022/11/07 01:00:27;;;;;;;9.73;5.63;;;;;;;;;;6219263;23;20023;-71
2022/11/07 01:05:39;;;;;;;11.27;6.18;;;;;;;;;;6219253;23;20012;-71
2022/11/07 01:08:05;;;;;;;15.77;5.32;;;;;;;;;;6218996;23;20020;-71
2022/11/07 01:10:31;;;;;;;11.52;5.82;;;;;;;;;;6219142;23;20034;-71
2022/11/07 01:12:57;;;;;;;12.30;6.15;;;;;;;;;;6218717;23;20035;-71
2022/11/07 01:15:23;;;;;;;16.88;6.15;;;;;;;;;;6219198;23;20051;-71
2022/11/07 01:17:49;;;;;;;16.15;7.18;;;;;;;;;;6219173;23;20016;-71
2022/11/07 01:20:16;;;;;;;12.32;6.65;;;;;;;;;;6219195;23;20016;-71
2022/11/07 01:22:42;;;;;;;12.55;6.15;;;;;;;;;;6218852;23;20062;-71
2022/11/07 01:25:08;;;;;;;17.48;6.15;;;;;;;;;;6194040;23;20403;-71
2022/11/07 01:27:34;;;;;;;15.95;6.28;;;;;;;;;;6218906;23;20443;-71
2022/11/07 01:30:00;;;;;;;12.82;6.20;;;;;;;;;;6219096;23;20370;-72
2022/11/07 01:32:27;;;;;;;13.27;6.35;;;;;;;;;;6219138;23;20034;-71
2022/11/07 01:34:53;;;;;;;12.07;6.20;;;;;;;;;;6219031;23;20518;-71
2022/11/07 01:37:19;;;;;;;20.05;6.45;;;;;;;;;;6219067;23;20023;-71
2022/11/07 01:39:45;;;;;;;16.48;6.60;;;;;;;;;;6218913;23;20023;-71
2022/11/07 01:42:12;;;;;;;16.60;5.93;;;;;;;;;;6218924;23;20133;-71
2022/11/07 01:44:41;;;;;;;17.08;5.95;;;;;;;;;;6219207;23;20342;-71
2022/11/07 01:47:08;;;;;;;15.32;5.50;;;;;;;;;;6218937;23;20024;-71
2022/11/07 01:49:37;;;;;;;10.10;4.90;;;;;;;;;;6218923;23;20091;-71
2022/11/07 01:52:12;;;;;;;12.90;5.03;;;;;;;;;;6219152;23;20024;-71
2022/11/07 01:54:43;;;;;;;11.48;5.57;;;;;;;;;;6219036;23;20016;-71
2022/11/07 01:57:13;;;;;;;20.88;6.47;;;;;;;;;;6219040;23;20012;-71
2022/11/07 01:59:39;;;;;;;19.83;4.38;;;;;;;;;;6218921;23;20511;-71
2022/11/07 02:02:06;;;;;;;18.05;5.18;;;;;;;;;;6218806;23;20091;-71
2022/11/07 02:04:32;;;;;;;14.15;4.55;;;;;;;;;;6218742;23;20019;-71
2022/11/07 02:07:04;;;;;;;19.70;4.65;;;;;;;;;;6218860;23;20346;-71
2022/11/07 02:09:30;;;;;;;16.87;4.80;;;;;;;;;;6218865;23;20092;-72
2022/11/07 02:11:59;;;;;;;10.45;4.20;;;;;;;;;;6218869;23;20337;-71
2022/11/07 02:14:26;;;;;;;17.63;5.85;;;;;;;;;;6218654;23;20020;-71
2022/11/07 02:16:52;;;;;;;17.65;4.57;;;;;;;;;;6218648;23;20496;-71
2022/11/07 02:19:21;;;;;;;24.58;4.60;;;;;;;;;;6245367;23;20016;-71
2022/11/07 02:22:13;;;;;;;16.35;4.70;;;10.50;99.90;;;;;;6218842;23;20020;-71
2022/11/07 02:24:39;;;;;;;14.10;5.00;;;;;;;;;;6187967;23;20012;-71
2022/11/07 02:27:08;;;;;;;18.55;4.50;;;;;;;;;;6220843;23;20016;-71
2022/11/07 02:29:37;;;;;;;13.63;3.90;;;;;;;;;;6220501;23;20385;-71
2022/11/07 02:32:05;;;;;;;17.88;4.43;;;;;;;;;;6221207;23;20339;-71
2022/11/07 02:34:31;;;;;;;10.90;4.93;;;;;;;;;;6220613;23;20039;-71
2022/11/07 02:36:57;;;;;;;13.68;3.83;;;;;;;;;;6220527;23;20446;-71
2022/11/07 02:39:24;;;;;;;14.93;4.70;;;;;;;;;;6220518;23;20020;-71
2022/11/07 02:41:51;;;;;;;20.23;4.20;;;;;;;;;;6220403;23;20386;-72
2022/11/07 02:44:17;;;;;;;14.35;4.35;;;;;;;;;;6220479;23;20050;-72
2022/11/07 02:46:44;;;;;;;13.20;4.28;;;;;;;;;;6220271;23;20500;-72
2022/11/07 02:49:10;;;;;;;13.57;3.92;;;;;;;;;;6220562;23;20012;-72
2022/11/07 02:51:36;;;;;;;10.60;3.50;;;;;;;;;;6220310;23;20018;-72
2022/11/07 02:54:02;;;;;;;11.40;3.17;;;;;;;;;;6220320;23;20012;-72
2022/11/07 02:56:28;;;;;;;9.82;3.42;;;;;;;;;;6220295;23;20042;-72
2022/11/07 02:58:54;;;;;;;12.75;3.45;;;;;;;;;;6220358;23;20097;-72
2022/11/07 03:01:20;;;;;;;13.70;3.42;;;;;;;;;;6220173;23;20500;-72
2022/11/07 03:03:48;;;;;;;18.38;3.60;;;;;;;;;;6220050;23;20008;-72
2022/11/07 03:06:20;;;;;;;8.73;3.30;;;;;;;;;;6220058;23;20410;-72
2022/11/07 03:08:46;;;;;;;11.80;3.88;;;;;;;;;;6220062;23;20043;-72
2022/11/07 03:11:12;;;;;;;14.15;3.88;;;;;;;;;;6220294;23;20019;-72
2022/11/07 03:13:39;;;;;;;11.13;3.65;;;;;;;;;;6220080;23;20012;-72
2022/11/07 03:16:09;;;;;;;9.73;3.33;;;;;;;;;;6219888;23;20019;-72
2022/11/07 03:18:36;;;;;;;12.93;3.38;;;;;;;;;;6220238;23;20008;-69
2022/11/07 03:21:02;;;;;;;16.33;3.80;;;;;;;;;;6220140;23;20063;-69
2022/11/07 03:23:28;;;;;;;15.00;3.38;;;;;;;;;;6219988;23;20023;-69
2022/11/07 03:25:55;;;;;;;19.85;3.95;;;;;;;;;;6220046;23;20012;-69
2022/11/07 03:28:21;;;;;;;14.65;3.70;;;;;;;;;;6219919;23;20088;-69
2022/11/07 03:30:47;;;;;;;11.98;3.70;;;;;;;;;;6220248;23;20083;-69
2022/11/07 03:33:13;;;;;;;17.35;3.30;;;;;;;;;;6219877;23;20076;-69
2022/11/07 03:35:39;;;;;;;15.77;4.18;;;;;;;;;;6194979;23;20055;-69
2022/11/07 03:38:05;;;;;;;12.15;3.10;;;;;;;;;;6219985;23;20012;-69
2022/11/07 03:40:31;;;;;;;15.57;3.00;;;;;;;;;;6219997;23;20016;-69
2022/11/07 03:42:57;;;;;;;8.80;2.97;;;;;;;;;;6219725;23;20023;-69
2022/11/07 03:45:23;;;;;;;18.05;3.47;;;;;;;;;;6220149;23;20043;-69
2022/11/07 03:47:49;;;;;;;19.30;3.35;;;;;;;;;;6220034;23;20008;-69
2022/11/07 03:50:17;;;;;;;16.73;3.50;;;;;;;;;;6219956;23;20062;-69
2022/11/07 03:52:43;;;;;;;12.07;2.70;;;;;;;;;;6219641;23;20020;-69
2022/11/07 03:55:10;;;;;;;13.60;3.00;;;;;;;;;;6219884;23;20055;-69
2022/11/07 03:57:36;;;;;;;13.38;2.92;;;;;;;;;;6246607;23;20016;-69
2022/11/07 04:00:02;;;;;;;12.77;3.00;;;;;;;;;;6219903;23;20016;-69
2022/11/07 04:02:28;;;;;;;13.88;3.17;;;;;;;;;;6219659;23;20070;-69
2022/11/07 04:04:54;;;;;;;12.60;3.13;;;;;;;;;;6219828;23;20023;-69
2022/11/07 04:07:20;;;;;;;17.13;3.00;;;;;;;;;;6200713;23;20098;-69
2022/11/07 04:09:46;;;;;;;16.02;3.00;;;;;;;;;;6184443;23;20013;-69
2022/11/07 04:17:41;;;;;;;16.95;3.13;;;;;;;;;;6184577;23;20075;-69
2022/11/07 04:20:08;;;;;;;15.18;3.60;;;;;;;;;;6184393;23;20016;-69
2022/11/07 04:22:34;;;;;;;18.77;3.97;;;;;;;;;;6184264;23;20045;-69
2022/11/07 04:25:00;;;;;;;14.13;3.72;;;;;;;;;;6184481;23;20013;-69
2022/11/07 04:27:41;;;;;;;13.48;3.58;;;;;;;;;;6184650;23;20013;-69
2022/11/07 04:30:20;;;;;;;19.25;3.83;;;;;;;;;;6184445;23;20013;-69
2022/11/07 04:32:50;;;;;;;20.08;3.70;;;;;;;;;;6184388;23;20019;-69
2022/11/07 04:35:16;;;;;;;11.90;4.00;;;;;;;;;;6159578;23;20021;-69
2022/11/07 04:37:42;;;;;;;17.58;3.88;;;;;;;;;;6184490;23;20017;-69
2022/11/07 04:40:09;;;;;;;11.65;3.25;;;;;;;;;;6184264;23;20021;-69
2022/11/07 04:42:35;;;;;;;14.70;3.50;;;;;;;;;;6184238;23;20024;-69
2022/11/07 04:45:01;;;;;;;11.32;3.25;;;;;;;;;;6184220;23;20024;-69
2022/11/07 04:47:27;;;;;;;18.92;4.97;;;;;;;;;;6184134;23;20335;-69
2022/11/07 04:49:53;;;;;;;17.38;3.88;;;;;;;;;;6184388;23;20009;-68
2022/11/07 04:52:19;;;;;;;13.90;3.30;;;;;;;;;;6184407;23;20016;-69
2022/11/07 04:54:46;;;;;;;14.88;3.85;;;;;;;;;;6184151;23;20075;-69
2022/11/07 04:57:12;;;;;;;10.00;3.22;;;;;;;;;;6185803;23;20013;-68
2022/11/07 04:59:38;;;;;;;15.05;3.38;;;;;;;;;;6184123;23;20020;-68
2022/11/07 05:02:05;;;;;;;18.42;3.85;;;;;;;;;;6183995;23;20088;-68
2022/11/07 05:04:31;;;;;;;20.48;4.30;;;;;;;;;;6159585;23;20346;-68
2022/11/07 05:06:57;;;;;;;17.08;3.38;;;;;;;;;;6197913;23;20020;-69
2022/11/07 05:09:23;;;;;;;16.25;4.95;;;;;;;;;;6219023;23;20055;-69
2022/11/07 05:11:49;;;;;;;16.77;3.13;;;;;;;;;;6219260;23;20549;-69
2022/11/07 05:14:15;;;;;;;12.80;3.28;;;;;;;;;;6219094;23;20323;-68
2022/11/07 05:16:42;;;;;;;17.52;3.80;;;;;;;;;;6219404;23;20023;-68
2022/11/07 05:19:15;;;;;;;14.32;3.35;;;;;;;;;;6219050;23;20020;-68
2022/11/07 05:21:41;;;;;;;12.27;3.22;;;;;;;;;;6219000;23;20013;-69
2022/11/07 05:24:07;;;;;;;14.48;2.92;;;;;;;;;;6219028;23;20047;-69
2022/11/07 05:26:34;;;;;;;18.42;3.47;;;;;;;;;;6194259;23;20008;-69
2022/11/07 05:29:00;;;;;;;23.75;3.75;;;;;;;;;;6218917;23;20385;-69
2022/11/07 05:31:26;;;;;;;11.32;2.80;;;;;;;;;;6219036;23;20020;-69
2022/11/07 05:33:52;;;;;;;10.05;2.70;;;;;;;;;;6219138;23;20051;-69
2022/11/07 05:36:20;;;;;;;9.82;2.83;;;;;;;;;;6193892;23;20027;-69
2022/11/07 05:38:47;;;;;;;14.45;3.75;;;;;;;;;;6218921;23;20074;-69
2022/11/07 05:41:14;;;;;;;14.77;3.13;;;;;;;;;;6218662;23;20020;-69
2022/11/07 05:43:40;;;;;;;10.52;2.78;;;;;;;;;;6219069;23;20093;-69
2022/11/07 05:46:06;;;;;;;14.32;3.33;;;;;;;;;;6218936;23;20009;-69
2022/11/07 05:48:32;;;;;;;11.02;2.72;;;;;;;;;;6218937;23;20082;-69
2022/11/07 05:50:59;;;;;;;8.10;2.50;;;;;;;;;;6218631;23;20012;-69
2022/11/07 05:53:25;;;;;;;8.77;2.53;;;;;;;;;;6219076;23;20043;-69
2022/11/07 05:55:52;;;;;;;15.77;3.25;;;;;;;;;;6245831;23;20105;-69
2022/11/07 05:58:19;;;;;;;15.63;3.10;;;;;;;;;;6219395;23;20693;-69
2022/11/07 06:00:45;;;;;;;6.15;2.58;;;;;;;;;;6220967;23;20062;-69
2022/11/07 06:03:11;;;;;;;8.80;2.80;;;;;;;;;;6220851;23;20020;-69
2022/11/07 06:05:38;;;;;;;8.55;3.22;;;;;;;;;;6220880;23;20051;-69
2022/11/07 06:08:04;;;;;;;11.02;2.85;;;;;;;;;;6220673;23;20468;-69
2022/11/07 06:10:31;;;;;;;11.73;2.85;;;;;;;;;;6221185;23;20443;-69
2022/11/07 06:13:01;;;;;;;12.85;3.55;;;;;;;;;;6220864;23;20083;-69
2022/11/07 06:15:28;;;;;;;12.90;3.30;;;;;;;;;;6247237;23;20043;-69
2022/11/07 06:17:54;;;;;;;13.38;4.38;;;;;;;;;;6220725;23;20070;-68
2022/11/07 06:20:20;;;;;;;7.10;2.78;;;;;;;;;;6220726;23;20300;-69
2022/11/07 06:22:46;;;;;;;13.15;3.60;;;;;;;;;;6220528;23;20070;-69
2022/11/07 06:25:12;;;;;;;13.30;3.58;;;;;;;;;;6220545;23;20008;-69
2022/11/07 06:27:38;;;;;;;8.23;3.03;;;;;;;;;;6220595;23;20012;-69
2022/11/07 06:30:04;;;;;;;9.25;2.97;;;;;;;;;;6220590;23;20008;-69
2022/11/07 06:32:31;;;;;;;9.38;3.00;;;;;;;;;;6220637;23;20070;-68
2022/11/07 06:34:57;;;;;;;12.10;3.95;;;;;;;;;;6195438;23;20016;-68
2022/11/07 06:37:25;;;;;;;8.15;3.15;;;;;;;;;;6219009;23;20231;-68
2022/11/07 06:39:51;;;;;;;8.40;3.63;;;;;;;;;;6218663;23;20043;-68
2022/11/07 06:42:17;;;;;;;13.93;4.75;;;;;;;;;;6218748;23;20012;-68
2022/11/07 06:44:43;;;;;;;12.15;3.83;;;;;;;;;;6220939;23;20117;-69
2022/11/07 06:47:09;;;;;;;9.88;4.05;;;;;;;;;;6220315;23;20008;-68
2022/11/07 06:49:35;;;;;;;8.55;4.03;;;;;;;;;;6220370;23;20095;-68
2022/11/07 06:52:01;;;;;;;20.20;5.97;;;;;;;;;;6220304;23;20016;-68
2022/11/07 06:54:28;;;;;;;18.38;4.20;;;;;;;;;;6220319;23;20083;-68
2022/11/07 06:56:54;;;;;;;17.20;4.95;;;;;;;;;;6220445;23;20258;-68
2022/11/07 06:59:20;;;;;;;15.63;4.40;;;;;;;;;;6195402;23;20016;-68
2022/11/07 07:01:46;;;;;;;14.68;4.80;;;;;;;;;;6220098;23;20134;-68
2022/11/07 07:04:12;;;;;;;15.77;4.93;;;;;;;;;;6220233;23;20016;-70
2022/11/07 07:06:39;;;;;;;12.07;4.05;;;;;;;;;;6210136;23;20351;-68
2022/11/07 07:09:05;;;;;;;11.07;3.92;;;;;;;;;;6184658;23;20092;-68
2022/11/07 07:11:34;;;;;;;13.85;3.92;;;;;;;;;;6182806;23;20408;-68
2022/11/07 07:14:00;;;;;;;14.70;4.43;;;;;;;;;;6182966;23;20074;-68
2022/11/07 07:16:26;;;;;;;10.55;3.50;;;;;;;;;;6182742;23;20021;-68
2022/11/07 07:18:52;;;;;;;11.38;4.15;;;;;;;;;;6182784;23;20096;-68
2022/11/07 07:21:19;;;;;;;12.60;4.43;;;;;;;;;;6182610;23;20021;-68
2022/11/07 07:23:45;;;;;;;19.85;4.15;;;;;;;;;;6182717;23;20096;-68
2022/11/07 07:26:12;;;;;;;16.55;5.65;;;;;;;;;;6134024;23;20444;-68
2022/11/07 07:28:38;;;;;;;17.92;5.03;;;;;;;;;;6184909;23;20017;-68
2022/11/07 07:31:10;;;;;;;16.00;4.30;;;;;;;;;;6184020;23;20013;-68
2022/11/07 07:33:36;;;;;;;14.57;4.57;;;;;;;;;;6182645;23;20013;-68
2022/11/07 07:36:02;;;;;;;12.25;4.22;;;;;;;;;;6182969;23;20017;-68
2022/11/07 07:38:29;;;;;;;16.80;3.92;;;;;;;;;;6182547;23;20025;-68
2022/11/07 07:40:56;;;;;;;14.90;4.15;;;;;;;;;;6157781;23;20339;-68
2022/11/07 07:43:22;;;;;;;20.65;4.68;;;;;;;;;;6183215;23;20092;-70
2022/11/07 07:45:48;;;;;;;15.70;4.35;;;;;;;;;;6182860;23;20017;-68
2022/11/07 07:48:14;;;;;;;13.95;4.03;;;;;;;;;;6182563;23;20096;-68
2022/11/07 07:50:41;;;;;;;17.05;4.47;;;;;;;;;;6182596;23;20017;-68
2022/11/07 07:53:07;;;;;;;16.50;4.70;;;;;;;;;;6182440;23;20021;-68
2022/11/07 07:55:34;;;;;;;16.05;4.10;;;;;;;;;;6183940;23;20440;-69
2022/11/07 07:58:00;;;;;;;11.35;3.80;;;;;;;;;;6182247;23;20013;-69
2022/11/07 08:00:26;;;;;;;10.18;3.60;;;;;;;;;;6182358;23;20020;-69
2022/11/07 08:02:59;;;;;;;12.38;3.95;;;;;;;;;;6182302;23;20072;-68
2022/11/07 08:05:25;;;;;;;14.65;4.25;;;;;;;;;;6183864;23;20017;-69
2022/11/07 08:07:51;;;;;;;16.77;4.45;;;;;;;;;;6187372;23;20028;-69
2022/11/07 08:10:18;;;;;;;15.55;4.43;;;;;;;;;;6184656;23;20020;-69
2022/11/07 08:12:48;;;;;;;19.30;4.65;;;;;;;;;;6185024;23;20096;-68
2022/11/07 08:15:15;;;;;;;21.33;5.55;;;;;;;;;;6184273;23;20356;-69
2022/11/07 08:17:41;;;;;;;15.88;4.30;;;;;;;;;;6184593;23;20053;-69
2022/11/07 08:20:08;;;;;;;22.08;4.70;;;;;;;;;;6184395;23;20092;-69
2022/11/07 08:22:35;;;;;;;15.93;4.60;;;;;;;;;;6183873;23;20021;-69
2022/11/07 08:25:01;;;;;;;20.33;5.32;;;;;;;;;;6184166;23;20013;-69
2022/11/07 08:27:27;;;;;;;17.23;4.75;;;;;;;;;;6184374;23;20088;-69
2022/11/07 08:29:53;;;;;;;13.85;4.38;;;;;;;;;;6184038;23;20017;-69
2022/11/07 08:32:19;;;;;;;17.20;5.15;;;;;;;;;;6183980;23;20139;-68
2022/11/07 08:34:46;;;;;;;18.23;4.72;;;;;;;;;;6183994;23;20028;-69
2022/11/07 08:37:12;;;;;;;12.93;4.80;;;;;;;;;;6184429;23;20021;-69
2022/11/07 08:39:38;;;;;;;15.18;4.85;;;;;;;;;;6184231;23;20023;-68
2022/11/07 08:42:04;;;;;;;16.77;4.95;;;;;;;;;;6184105;23;20017;-68
2022/11/07 08:44:33;;;;;;;15.73;4.35;;;;;;;;;;6184170;23;20013;-69
2022/11/07 08:46:59;;;;;;;16.48;5.43;;;;;;;;;;6184426;23;20020;-69
2022/11/07 08:49:26;;;;;;;22.77;7.20;;;;;;;;;;6183712;23;20023;-68
2022/11/07 08:51:52;;;;;;;20.60;5.05;;;;;;;;;;6183773;23;20045;-68
2022/11/07 08:54:18;;;;;;;16.55;5.18;;;;;;;;;;6183920;23;20021;-68
2022/11/07 08:56:44;;;;;;;26.73;5.78;;;;;;;;;;6185638;23;20047;-68
2022/11/07 08:59:10;;;;;;;19.98;5.15;;;;;;;;;;6183737;23;20013;-68
2022/11/07 09:01:36;;;;;;;19.33;5.18;;;;;;;;;;6159041;23;20021;-68
2022/11/07 09:04:02;;;;;;;23.75;5.43;;;;;;;;;;6183929;23;20017;-69
2022/11/07 09:06:28;;;;;;;28.05;5.57;;;;;;;;;;6159006;23;20024;-68
2022/11/07 09:08:55;;;;;;;20.27;4.97;;;;;;;;;;6186731;23;20059;-69
2022/11/07 09:11:21;;;;;;;25.17;6.20;;;;;;;;;;6183995;23;20462;-69
2022/11/07 09:13:47;;;;;;;22.63;5.30;;;;;;;;;;6183895;23;20017;-69
2022/11/07 09:16:16;;;;;;;21.33;5.43;;;;;;;;;;6183800;23;20449;-69
2022/11/07 09:18:43;;;;;;;21.85;5.35;;;;;;;;;;6159070;23;20017;-68
2022/11/07 09:21:09;;;;;;;22.05;5.13;;;;;;;;;;6185188;23;20021;-68
2022/11/07 09:23:36;;;;;;;20.27;5.32;;;;;;;;;;6183681;23;20013;-68
2022/11/07 09:26:02;;;;;;;14.30;4.72;;;;;;;;;;6183978;23;20016;-68
2022/11/07 09:28:29;;;;;;;18.30;4.85;;;;;;;;;;6183790;23;20017;-68
2022/11/07 09:30:56;;;;;;;22.75;4.50;;;;;;;;;;6185280;23;20017;-68
2022/11/07 09:33:22;;;;;;;19.30;4.90;;;;;;;;;;6183559;23;20087;-68
2022/11/07 09:35:49;;;;;;;24.67;5.57;;;;;;;;;;6159022;23;20020;-68
2022/11/07 09:38:15;;;;;;;15.23;6.07;;;;;;;;;;6183695;23;20067;-68
2022/11/07 09:40:44;;;;;;;20.38;4.95;;;;;;;;;;6183778;23;20021;-68
2022/11/07 09:43:30;;;;;;;14.82;5.55;;;;;;;;;;6183627;23;20021;-69
2022/11/07 09:45:59;;;;;;;20.52;4.53;;;;;;;;;;6183618;23;20092;-68
2022/11/07 09:48:29;;;;;;;17.48;4.65;;;;;;;;;;6183695;23;20048;-68
2022/11/07 09:50:56;;;;;;;26.58;4.93;;;;;;;;;;6185129;23;20487;-68
2022/11/07 09:53:25;;;;;;;19.48;4.60;;;;;;;;;;6183343;23;20017;-68
2022/11/07 09:55:53;;;;;;;11.45;4.38;;;;;;;;;;6158772;23;20450;-68
2022/11/07 09:58:31;;;;;;;17.90;5.20;;;;;;;;;;6183281;23;20017;-68
2022/11/07 10:00:59;;;;;;;19.92;5.57;;;;;;;;;;6183672;23;20344;-69
2022/11/07 10:03:26;;;;;;;20.27;5.30;;;;;;;;;;6183213;23;20013;-68
2022/11/07 10:05:58;;;;;;;23.08;4.90;;;;;;;;;;6183648;23;20013;-68
2022/11/07 10:08:33;;;;;;;18.27;4.78;;;;;;;;;;6183267;23;20018;-68
2022/11/07 10:11:02;;;;;;;20.17;5.28;;;;;;;;;;6183663;23;20517;-68
2022/11/07 10:13:32;;;;;;;16.38;4.85;;;;;;;;;;6182899;23;20059;-68
2022/11/07 10:16:04;;;;;;;14.15;4.43;;;;;;;;;;6182796;23;20024;-69
2022/11/07 10:18:33;;;;;;;19.70;4.65;;;;;;;;;;6183231;23;20028;-68
2022/11/07 10:21:05;;;;;;;15.75;4.38;;;;;;;;;;6183262;23;20352;-68
2022/11/07 10:23:57;;;;;;;16.48;4.22;;;;;;;;;;6183081;23;20052;-68
2022/11/07 10:26:25;;;;;;;15.52;3.90;;;;;;;;;;6180311;23;20021;-68
2022/11/07 10:28:54;;;;;;;16.25;4.47;;;;;;;;;;6182512;23;20092;-69
2022/11/07 10:31:20;;;;;;;14.10;5.35;;;;;;;;;;6182579;23;20044;-68
2022/11/07 10:34:04;;;;;;;12.75;3.75;;;;;;;;;;6182769;23;20065;-68
2022/11/07 10:36:31;;;;;;;16.60;4.10;;;;;;;;;;6157875;23;20013;-69
2022/11/07 10:38:57;;;;;;;21.15;3.72;;;;;;;;;;6182487;23;20095;-68
2022/11/07 10:41:28;;;;;;;22.77;4.28;;;;;;;;;;6182419;23;20023;-68
2022/11/07 10:44:06;;;;;;;16.85;3.75;;;;;;;;;;6182686;23;20514;-69
2022/11/07 10:46:40;;;;;;;18.23;3.75;;;;;;;;;;6183901;23;20024;-69
2022/11/07 10:49:18;;;;;;;13.80;4.72;;;;;;;;;;6185214;23;20108;-69
2022/11/07 10:51:44;;;;;;;18.25;4.20;;;;;;;;;;6185195;23;20021;-69
2022/11/07 10:54:30;;;;;;;17.73;4.05;;;;;;;;;;6160331;23;20016;-69
2022/11/07 10:57:08;;;;;;;12.20;3.75;;;;;;;;;;6184917;23;20486;-69
2022/11/07 10:59:37;;;;;;;16.98;4.15;;;;;;;;;;6185231;23;20016;-69
2022/11/07 11:02:13;;;;;;;20.10;5.53;;;;;;;;;;6184752;23;20013;-68
2022/11/07 11:04:46;;;;;;;18.77;4.22;;;;;;;;;;6184989;23;20017;-69
2022/11/07 11:07:13;;;;;;;14.90;4.53;;;;;;;;;;6197938;23;20023;-69
2022/11/07 11:09:49;;;;;;;18.80;4.20;;;;;;;;;;6220046;23;20023;-69
2022/11/07 11:12:15;;;;;;;14.68;4.40;;;;;;;;;;6218540;23;20044;-69
2022/11/07 11:14:41;;;;;;;20.50;4.60;;;;;;;;;;6220885;23;20012;-68
2022/11/07 11:17:21;;;;;;;20.95;4.43;;;;;;;;;;6246796;23;20012;-69
2022/11/07 11:19:52;;;;;;;16.52;4.07;;;;;;;;;;6219883;23;20091;-69
2022/11/07 11:22:20;;;;;;;15.98;4.13;;;;;;;;;;6220021;23;20024;-69
2022/11/07 11:24:46;;;;;;;18.70;4.60;;;;;;;;;;6219912;23;20061;-69
2022/11/07 11:27:14;;;;;;;20.48;4.57;;;;;;;;;;6220040;23;20450;-69
2022/11/07 11:29:41;;;;;;;19.33;4.30;;;;;;;;;;6220020;23;20015;-69
2022/11/07 11:32:12;;;;;;;11.63;4.40;;;;;;;;;;6220129;23;20024;-69
2022/11/07 11:35:20;;;;;;;20.40;5.00;;;12.70;99.90;;;;;;6219903;23;20047;-69
2022/11/07 11:37:49;;;;;;;15.40;4.68;;;;;;;;;;6179139;23;20347;-69
2022/11/07 11:40:20;;;;;;;19.55;4.95;;;;;;;;;;6219847;23;20074;-69
2022/11/07 11:42:57;;;;;;;22.58;4.75;;;;;;;;;;6219812;23;20026;-69
2022/11/07 11:45:43;;;;;;;15.52;4.47;;;;;;;;;;6219669;23;20016;-69
2022/11/07 11:48:09;;;;;;;17.05;4.68;;;;;;;;;;6219750;23;20016;-69
2022/11/07 11:50:39;;;;;;;22.08;5.47;;;;;;;;;;6219783;23;20044;-68
2022/11/07 11:53:08;;;;;;;12.27;4.15;;;;;;;;;;6246706;23;20016;-69
2022/11/07 11:55:38;;;;;;;20.23;4.95;;;;;;;;;;6246868;23;20070;-70
2022/11/07 11:58:04;;;;;;;22.70;5.95;;;;;;;;;;6217330;23;20233;-70
2022/11/07 12:00:31;;;;;;;17.15;5.65;;;;;;;;;;6218804;23;20018;-70
2022/11/07 12:03:26;;;;;;;18.52;5.70;;;13.20;99.90;;;;;;6245365;23;20020;-70
2022/11/07 12:05:56;;;;;;;11.43;3.97;;;;;;;;;;6192705;23;20008;-70
2022/11/07 12:08:37;;;;;;;20.73;4.97;;;;;;;;;;6219517;23;20086;-70
2022/11/07 12:11:15;;;;;;;15.88;4.93;;;;;;;;;;6219648;23;20015;-70
2022/11/07 12:13:54;;;;;;;16.27;4.18;;;;;;;;;;6219680;23;20039;-70
2022/11/07 12:16:35;;;;;;;17.50;4.38;;;;;;;;;;6219493;23;20065;-70
2022/11/07 12:19:17;;;;;;;10.88;4.18;;;;;;;;;;6219573;23;20093;-70
2022/11/07 12:21:50;;;;;;;18.73;4.38;;;;;;;;;;6219645;23;20509;-70
2022/11/07 12:24:27;;;;;;;12.50;3.78;;;;;;;;;;6219519;23;20079;-70
2022/11/07 12:26:53;;;;;;;11.25;4.45;;;;;;;;;;6246365;23;20016;-70
2022/11/07 12:29:26;;;;;;;15.63;4.22;;;;;;;;;;6219219;23;20069;-70
2022/11/07 12:31:55;;;;;;;19.90;6.40;;;;;;;;;;6219602;23;20016;-70
2022/11/07 12:34:26;;;;;;;11.88;4.18;;;;;;;;;;6219232;23;20047;-69
2022/11/07 12:37:30;;;;;;;14.13;4.47;;;13.40;99.90;;;;;;6219621;23;20399;-70
2022/11/07 12:39:59;;;;;;;16.10;4.50;;;;;;;;;;6247266;23;20316;-69
2022/11/07 12:42:34;;;;;;;15.25;4.40;;;;;;;;;;6219906;23;20074;-69
2022/11/07 12:45:05;;;;;;;17.13;4.10;;;;;;;;;;6219207;23;20005;-69
2022/11/07 12:47:40;;;;;;;10.23;4.25;;;;;;;;;;6219291;23;20016;-70
2022/11/07 12:50:12;;;;;;;12.13;4.28;;;;;;;;;;6219472;23;20012;-70
2022/11/07 12:52:51;;;;;;;13.25;3.88;;;;;;;;;;6218723;23;20027;-70
2022/11/07 12:55:20;;;;;;;15.82;4.35;;;;;;;;;;6218991;23;20048;-70
2022/11/07 12:57:48;;;;;;;18.58;3.88;;;;;;;;;;6218784;23;20020;-70
2022/11/07 13:00:33;;;;;;;18.50;4.90;;;;;;;;;;6210924;23;20024;-70
2022/11/07 13:03:20;;;;;;;12.95;3.97;;;13.30;99.90;;;;;;6218538;23;20455;-69
2022/11/07 13:06:09;;;;;;;15.23;4.20;;;;;;;;;;6218667;23;20016;-69
2022/11/07 13:08:43;;;;;;;15.00;4.40;;;;;;;;;;6218930;23;20020;-69
2022/11/07 13:11:39;;;;;;;14.60;4.13;;;13.10;99.90;;;;;;6218822;23;20052;-69
2022/11/07 13:14:15;;;;;;;16.05;4.50;;;;;;;;;;6219076;23;20454;-70
2022/11/07 13:16:49;;;;;;;15.90;5.18;;;;;;;;;;6217835;23;20016;-70
2022/11/07 13:19:24;;;;;;;16.17;4.35;;;;;;;;;;6218875;23;20043;-70
2022/11/07 13:21:58;;;;;;;12.15;4.20;;;;;;;;;;6218989;23;20381;-70
2022/11/07 13:24:24;;;;;;;13.93;4.07;;;;;;;;;;6218879;23;20016;-70
2022/11/07 13:26:50;;;;;;;19.15;4.82;;;;;;;;;;6218956;23;20008;-70
2022/11/07 13:29:24;;;;;;;16.92;4.13;;;;;;;;;;6245710;23;20022;-70
2022/11/07 13:32:05;;;;;;;13.35;4.00;;;;;;;;;;6245820;23;20070;-70
2022/11/07 13:34:41;;;;;;;16.75;4.80;;;;;;;;;;6218951;23;20012;-70
2022/11/07 13:37:12;;;;;;;16.08;4.18;;;;;;;;;;6218793;23;20016;-70
2022/11/07 13:39:38;;;;;;;13.80;4.20;;;;;;;;;;6218782;23;20016;-70
2022/11/07 13:42:05;;;;;;;22.50;5.40;;;;;;;;;;6218670;23;20016;-70
2022/11/07 13:44:33;;;;;;;15.13;4.68;;;;;;;;;;6218877;23;20450;-70
2022/11/07 13:47:01;;;;;;;17.98;5.13;;;;;;;;;;6218828;23;20431;-70
2022/11/07 13:49:31;;;;;;;19.88;4.25;;;;;;;;;;6218585;23;20016;-70
2022/11/07 13:52:00;;;;;;;13.48;4.10;;;;;;;;;;6218343;23;20095;-70
2022/11/07 13:54:36;;;;;;;16.52;4.68;;;;;;;;;;6218405;23;20342;-70
2022/11/07 13:57:06;;;;;;;15.20;4.25;;;;;;;;;;6218332;23;20019;-70
2022/11/07 13:59:41;;;;;;;19.45;4.93;;;;;;;;;;6218814;23;20071;-70
2022/11/07 14:02:17;;;;;;;13.30;4.15;;;;;;;;;;6218213;23;20019;-70
2022/11/07 14:04:47;;;;;;;23.65;5.97;;;;;;;;;;6218342;23;20085;-71
2022/11/07 14:07:14;;;;;;;17.27;4.28;;;;;;;;;;6218499;23;20016;-70
2022/11/07 14:09:40;;;;;;;18.17;4.60;;;;;;;;;;6218507;23;20058;-70
2022/11/07 14:12:06;;;;;;;14.65;4.50;;;;;;;;;;6218418;23;20464;-70
2022/11/07 14:14:32;;;;;;;18.65;4.60;;;;;;;;;;6245530;23;20020;-70
2022/11/07 14:16:59;;;;;;;16.65;4.38;;;;;;;;;;6218386;23;20070;-70
2022/11/07 14:19:26;;;;;;;20.13;4.82;;;;;;;;;;6218642;23;20008;-70
2022/11/07 14:21:54;;;;;;;16.80;4.55;;;;;;;;;;6220480;23;20023;-70
2022/11/07 14:24:22;;;;;;;14.65;4.28;;;;;;;;;;6220256;23;20016;-70
2022/11/07 14:27:06;;;;;;;19.65;6.88;;;;;;;;;;6220122;23;20020;-70
2022/11/07 14:29:32;;;;;;;20.38;5.38;;;;;;;;;;6220195;23;20012;-70
2022/11/07 14:32:00;;;;;;;18.17;4.22;;;;;;;;;;6220140;23;20097;-70
2022/11/07 14:34:26;;;;;;;15.60;4.13;;;;;;;;;;6220093;23;20405;-70
2022/11/07 14:36:59;;;;;;;26.42;5.43;;;;;;;;;;6219903;23;20027;-70
2022/11/07 14:39:27;;;;;;;14.80;3.88;;;;;;;;;;6247035;23;20078;-70
2022/11/07 14:41:55;;;;;;;14.98;4.03;;;;;;;;;;6219905;23;20020;-70
2022/11/07 14:44:33;;;;;;;25.38;6.30;;;;;;;;;;6246871;23;20016;-70
2022/11/07 14:46:59;;;;;;;22.02;4.78;;;;;;;;;;6219651;23;20565;-70